createdAt,value
2018-12-22T00:00:34.337Z,13.00
2018-12-22T00:01:38.469Z,12.99
2018-12-22T00:02:42.601Z,13.01
2018-12-22T00:03:46.753Z,13.00
2018-12-22T00:04:50.787Z,13.01
2018-12-22T00:05:55.018Z,13.02
2018-12-22T00:06:59.278Z,13.03
2018-12-22T00:08:03.402Z,13.04
2018-12-22T00:09:07.480Z,13.05
2018-12-22T00:10:11.485Z,13.01
2018-12-22T00:11:15.534Z,13.05
2018-12-22T00:12:19.563Z,13.08
2018-12-22T00:13:23.549Z,13.08
2018-12-22T00:14:27.673Z,13.08
2018-12-22T00:15:32.162Z,13.09
2018-12-22T00:16:36.264Z,13.08
2018-12-22T00:17:40.277Z,13.08
2018-12-22T00:18:44.388Z,13.08
2018-12-22T00:19:48.406Z,13.06
2018-12-22T00:20:52.455Z,13.08
2018-12-22T00:21:56.482Z,13.08
2018-12-22T00:23:00.658Z,13.04
2018-12-22T00:24:04.688Z,13.09
2018-12-22T00:25:08.717Z,13.09
2018-12-22T00:26:12.786Z,13.08
2018-12-22T00:27:17.527Z,13.08
2018-12-22T00:28:22.257Z,13.08
2018-12-22T00:29:26.667Z,13.08
2018-12-22T00:30:30.723Z,13.06
2018-12-22T00:31:34.856Z,13.06
2018-12-22T00:32:38.920Z,13.05
2018-12-22T00:33:42.939Z,13.05
2018-12-22T00:34:51.788Z,13.04
2018-12-22T00:35:55.947Z,13.03
2018-12-22T00:37:00.031Z,13.00
2018-12-22T00:38:04.058Z,13.03
2018-12-22T00:39:08.235Z,13.02
2018-12-22T00:40:12.288Z,13.02
2018-12-22T00:41:16.368Z,13.00
2018-12-22T00:42:20.407Z,13.00
2018-12-22T00:43:24.527Z,13.00
2018-12-22T00:44:28.649Z,12.99
2018-12-22T00:45:32.746Z,12.99
2018-12-22T00:46:36.859Z,12.98
2018-12-22T00:47:40.876Z,12.98
2018-12-22T00:48:44.987Z,12.97
2018-12-22T00:49:49.009Z,12.98
2018-12-22T00:50:53.203Z,12.97
2018-12-22T00:51:57.220Z,12.97
2018-12-22T00:53:01.273Z,12.97
2018-12-22T00:54:05.365Z,12.96
2018-12-22T00:55:09.521Z,12.95
2018-12-22T00:56:13.692Z,12.95
2018-12-22T00:57:17.760Z,12.94
2018-12-22T00:58:21.761Z,12.92
2018-12-22T00:59:25.819Z,12.89
2018-12-22T01:00:29.825Z,12.87
2018-12-22T01:01:33.875Z,12.85
2018-12-22T01:02:38.009Z,12.84
2018-12-22T01:03:42.021Z,12.82
2018-12-22T01:04:46.123Z,12.80
2018-12-22T01:05:50.159Z,12.79
2018-12-22T01:06:54.324Z,12.77
2018-12-22T01:07:58.787Z,12.77
2018-12-22T01:09:03.998Z,12.78
2018-12-22T01:10:08.807Z,12.77
2018-12-22T01:11:12.897Z,12.77
2018-12-22T01:12:16.928Z,12.76
2018-12-22T01:13:21.034Z,12.75
2018-12-22T01:14:25.091Z,12.75
2018-12-22T01:15:29.186Z,12.74
2018-12-22T01:16:33.175Z,12.73
2018-12-22T01:17:37.206Z,12.72
2018-12-22T01:18:41.220Z,12.72
2018-12-22T01:19:45.298Z,12.70
2018-12-22T01:20:49.475Z,12.70
2018-12-22T01:21:53.517Z,12.68
2018-12-22T01:22:57.556Z,12.66
2018-12-22T01:24:01.559Z,12.61
2018-12-22T01:25:06.316Z,12.64
2018-12-22T01:26:10.467Z,12.64
2018-12-22T01:27:14.522Z,12.65
2018-12-22T01:28:18.537Z,12.64
2018-12-22T01:29:22.594Z,12.63
2018-12-22T01:30:26.581Z,12.64
2018-12-22T01:31:30.775Z,12.64
2018-12-22T01:32:34.858Z,12.62
2018-12-22T01:33:38.968Z,12.62
2018-12-22T01:34:43.001Z,12.62
2018-12-22T01:35:47.010Z,12.60
2018-12-22T01:36:51.157Z,12.60
2018-12-22T01:37:55.193Z,12.60
2018-12-22T01:38:59.272Z,12.60
2018-12-22T01:40:03.454Z,12.60
2018-12-22T01:41:07.735Z,12.61
2018-12-22T01:42:11.921Z,12.60
2018-12-22T01:43:15.921Z,12.60
2018-12-22T01:44:19.937Z,12.60
2018-12-22T01:45:23.995Z,12.61
2018-12-22T01:46:28.019Z,12.63
2018-12-22T01:47:32.090Z,12.62
2018-12-22T01:48:36.129Z,12.63
2018-12-22T01:49:40.217Z,12.63
2018-12-22T01:50:44.321Z,12.63
2018-12-22T01:51:48.781Z,12.63
2018-12-22T01:52:52.858Z,12.63
2018-12-22T01:53:57.035Z,12.62
2018-12-22T01:55:01.008Z,12.62
2018-12-22T01:56:05.243Z,12.59
2018-12-22T01:57:09.242Z,12.59
2018-12-22T01:58:13.297Z,12.60
2018-12-22T01:59:17.305Z,12.60
2018-12-22T02:00:21.693Z,12.60
2018-12-22T02:01:25.765Z,12.60
2018-12-22T02:02:29.890Z,12.62
2018-12-22T02:03:34.014Z,12.62
2018-12-22T02:04:38.028Z,12.63
2018-12-22T02:05:42.025Z,12.64
2018-12-22T02:06:46.103Z,12.66
2018-12-22T02:07:50.129Z,12.68
2018-12-22T02:08:54.317Z,12.69
2018-12-22T02:09:58.362Z,12.71
2018-12-22T02:11:02.345Z,12.73
2018-12-22T02:12:06.374Z,12.73
2018-12-22T02:13:10.393Z,12.75
2018-12-22T02:14:14.490Z,12.77
2018-12-22T02:15:18.519Z,12.77
2018-12-22T02:16:22.655Z,12.78
2018-12-22T02:17:26.645Z,12.79
2018-12-22T02:18:30.654Z,12.79
2018-12-22T02:19:38.035Z,12.81
2018-12-22T02:20:42.226Z,12.82
2018-12-22T02:21:46.275Z,12.82
2018-12-22T02:22:50.290Z,12.83
2018-12-22T02:23:54.364Z,12.83
2018-12-22T02:24:58.405Z,12.83
2018-12-22T02:26:02.434Z,12.84
2018-12-22T02:27:06.523Z,12.86
2018-12-22T02:28:10.543Z,12.86
2018-12-22T02:29:15.569Z,12.86
2018-12-22T02:30:19.612Z,12.87
2018-12-22T02:31:23.623Z,12.88
2018-12-22T02:32:27.734Z,12.88
2018-12-22T02:33:31.799Z,12.89
2018-12-22T02:34:35.949Z,12.89
2018-12-22T02:35:40.055Z,12.88
2018-12-22T02:36:45.376Z,12.87
2018-12-22T02:37:49.458Z,12.86
2018-12-22T02:38:53.493Z,12.87
2018-12-22T02:39:57.625Z,12.84
2018-12-22T02:41:01.708Z,12.87
2018-12-22T02:42:05.825Z,12.88
2018-12-22T02:43:09.897Z,12.88
2018-12-22T02:44:13.902Z,12.88
2018-12-22T02:45:18.015Z,12.87
2018-12-22T02:46:22.176Z,12.88
2018-12-22T02:47:26.403Z,12.89
2018-12-22T02:48:30.474Z,12.89
2018-12-22T02:49:34.728Z,12.90
2018-12-22T02:50:38.808Z,12.90
2018-12-22T02:51:43.533Z,12.91
2018-12-22T02:52:47.531Z,12.92
2018-12-22T02:53:51.635Z,12.92
2018-12-22T02:54:55.889Z,12.92
2018-12-22T02:55:59.947Z,12.91
2018-12-22T02:57:04.137Z,12.93
2018-12-22T02:58:08.290Z,12.93
2018-12-22T02:59:12.312Z,12.94
2018-12-22T03:00:16.501Z,12.93
2018-12-22T03:01:20.569Z,12.92
2018-12-22T03:02:24.730Z,12.92
2018-12-22T03:03:28.861Z,12.90
2018-12-22T03:04:32.869Z,12.89
2018-12-22T03:05:36.988Z,12.90
2018-12-22T03:06:41.096Z,12.89
2018-12-22T03:07:45.307Z,12.88
2018-12-22T03:08:49.396Z,12.88
2018-12-22T03:09:53.889Z,12.89
2018-12-22T03:10:57.914Z,12.89
2018-12-22T03:12:02.094Z,12.89
2018-12-22T03:13:06.146Z,12.90
2018-12-22T03:14:10.243Z,12.92
2018-12-22T03:15:14.372Z,12.93
2018-12-22T03:16:18.445Z,12.93
2018-12-22T03:17:22.512Z,12.94
2018-12-22T03:18:26.543Z,12.94
2018-12-22T03:19:30.549Z,12.93
2018-12-22T03:20:34.648Z,12.94
2018-12-22T03:21:38.678Z,12.94
2018-12-22T03:22:42.708Z,12.95
2018-12-22T03:23:46.757Z,12.97
2018-12-22T03:24:50.775Z,12.96
2018-12-22T03:25:54.831Z,12.97
2018-12-22T03:26:58.894Z,12.97
2018-12-22T03:28:03.106Z,12.98
2018-12-22T03:29:15.260Z,12.97
2018-12-22T03:30:13.388Z,12.99
2018-12-22T03:31:17.567Z,12.98
2018-12-22T03:32:21.735Z,12.97
2018-12-22T03:33:25.929Z,12.97
2018-12-22T03:34:29.934Z,12.96
2018-12-22T03:35:34.005Z,12.93
2018-12-22T03:36:38.202Z,12.92
2018-12-22T03:37:42.239Z,12.90
2018-12-22T03:38:46.418Z,12.89
2018-12-22T03:39:50.596Z,12.87
2018-12-22T03:40:54.666Z,12.87
2018-12-22T03:41:58.758Z,12.83
2018-12-22T03:43:02.830Z,12.76
2018-12-22T03:44:06.986Z,12.73
2018-12-22T03:45:11.102Z,12.71
2018-12-22T03:46:15.150Z,12.66
2018-12-22T03:47:19.144Z,12.66
2018-12-22T03:48:23.230Z,12.63
2018-12-22T03:49:27.445Z,12.58
2018-12-22T03:50:31.587Z,12.54
2018-12-22T03:51:35.708Z,12.50
2018-12-22T03:52:39.756Z,12.45
2018-12-22T03:53:43.779Z,12.41
2018-12-22T03:54:48.049Z,12.37
2018-12-22T03:55:52.301Z,12.33
2018-12-22T03:56:56.461Z,12.27
2018-12-22T03:58:00.508Z,12.24
2018-12-22T03:59:04.661Z,12.19
2018-12-22T04:00:08.847Z,12.17
2018-12-22T04:01:12.909Z,12.13
2018-12-22T04:02:17.069Z,12.11
2018-12-22T04:03:21.113Z,12.09
2018-12-22T04:04:25.140Z,12.08
2018-12-22T04:05:29.190Z,12.06
2018-12-22T04:06:33.226Z,12.06
2018-12-22T04:07:37.491Z,12.06
2018-12-22T04:08:41.595Z,12.05
2018-12-22T04:09:45.607Z,12.05
2018-12-22T04:10:49.935Z,12.04
2018-12-22T04:11:54.001Z,12.04
2018-12-22T04:12:58.066Z,12.01
2018-12-22T04:14:02.132Z,12.01
2018-12-22T04:15:06.615Z,12.02
2018-12-22T04:16:10.718Z,12.03
2018-12-22T04:17:14.850Z,12.04
2018-12-22T04:18:18.960Z,12.04
2018-12-22T04:19:23.268Z,12.04
2018-12-22T04:20:27.427Z,12.06
2018-12-22T04:21:31.502Z,12.05
2018-12-22T04:22:35.642Z,12.01
2018-12-22T04:23:39.687Z,12.06
2018-12-22T04:24:43.846Z,12.06
2018-12-22T04:25:48.017Z,12.04
2018-12-22T04:26:52.262Z,12.08
2018-12-22T04:27:56.339Z,12.07
2018-12-22T04:29:00.397Z,12.06
2018-12-22T04:30:04.828Z,12.05
2018-12-22T04:31:08.825Z,12.04
2018-12-22T04:32:12.829Z,12.03
2018-12-22T04:33:16.913Z,12.05
2018-12-22T04:34:20.944Z,12.04
2018-12-22T04:35:25.023Z,12.05
2018-12-22T04:36:29.254Z,11.99
2018-12-22T04:37:33.349Z,11.99
2018-12-22T04:38:37.445Z,12.04
2018-12-22T04:39:41.457Z,12.05
2018-12-22T04:40:45.489Z,12.04
2018-12-22T04:41:49.496Z,12.04
2018-12-22T04:42:53.522Z,12.05
2018-12-22T04:43:57.531Z,12.07
2018-12-22T04:45:01.667Z,12.09
2018-12-22T04:46:05.813Z,12.10
2018-12-22T04:47:09.848Z,12.13
2018-12-22T04:48:13.962Z,12.15
2018-12-22T04:49:18.059Z,12.16
2018-12-22T04:50:22.041Z,12.18
2018-12-22T04:51:26.132Z,12.17
2018-12-22T04:52:30.191Z,12.19
2018-12-22T04:53:34.226Z,12.20
2018-12-22T04:54:38.279Z,12.20
2018-12-22T04:55:42.353Z,12.21
2018-12-22T04:56:46.386Z,12.22
2018-12-22T04:57:50.426Z,12.21
2018-12-22T04:58:54.429Z,12.20
2018-12-22T04:59:58.535Z,12.20
2018-12-22T05:01:02.564Z,12.20
2018-12-22T05:02:06.589Z,12.21
2018-12-22T05:03:10.618Z,12.20
2018-12-22T05:04:14.683Z,12.21
2018-12-22T05:05:18.728Z,12.21
2018-12-22T05:06:22.732Z,12.22
2018-12-22T05:07:26.891Z,12.21
2018-12-22T05:08:30.908Z,12.24
2018-12-22T05:09:34.981Z,12.24
2018-12-22T05:10:38.982Z,12.26
2018-12-22T05:11:43.318Z,12.26
2018-12-22T05:12:47.932Z,12.26
2018-12-22T05:13:52.000Z,12.25
2018-12-22T05:14:56.016Z,12.25
2018-12-22T05:16:00.022Z,12.24
2018-12-22T05:17:04.083Z,12.23
2018-12-22T05:18:08.109Z,12.22
2018-12-22T05:19:12.168Z,12.22
2018-12-22T05:20:16.220Z,12.23
2018-12-22T05:21:20.242Z,12.24
2018-12-22T05:22:24.244Z,12.25
2018-12-22T05:23:28.441Z,12.26
2018-12-22T05:24:32.432Z,12.26
2018-12-22T05:25:36.674Z,12.25
2018-12-22T05:26:40.726Z,12.24
2018-12-22T05:27:44.737Z,12.25
2018-12-22T05:28:48.798Z,12.24
2018-12-22T05:29:52.880Z,12.23
2018-12-22T05:30:56.962Z,12.22
2018-12-22T05:32:00.986Z,12.23
2018-12-22T05:33:04.989Z,12.18
2018-12-22T05:34:09.173Z,12.23
2018-12-22T05:35:13.307Z,12.23
2018-12-22T05:36:17.458Z,12.22
2018-12-22T05:37:21.566Z,12.23
2018-12-22T05:38:25.680Z,12.22
2018-12-22T05:39:29.714Z,12.22
2018-12-22T05:40:33.722Z,12.21
2018-12-22T05:41:37.738Z,12.21
2018-12-22T05:42:41.775Z,12.21
2018-12-22T05:43:45.900Z,12.21
2018-12-22T05:44:50.113Z,12.22
2018-12-22T05:45:54.173Z,12.24
2018-12-22T05:46:58.197Z,12.20
2018-12-22T05:48:02.362Z,12.25
2018-12-22T05:49:06.381Z,12.27
2018-12-22T05:50:10.528Z,12.28
2018-12-22T05:51:14.607Z,12.29
2018-12-22T05:52:18.721Z,12.31
2018-12-22T05:53:22.891Z,12.32
2018-12-22T05:54:26.917Z,12.33
2018-12-22T05:55:30.950Z,12.32
2018-12-22T05:56:34.966Z,12.31
2018-12-22T05:57:39.007Z,12.30
2018-12-22T05:58:43.123Z,12.25
2018-12-22T05:59:47.224Z,12.21
2018-12-22T06:00:51.360Z,12.14
2018-12-22T06:01:55.421Z,12.08
2018-12-22T06:02:59.477Z,12.00
2018-12-22T06:04:03.492Z,11.95
2018-12-22T06:05:09.039Z,11.91
2018-12-22T06:06:13.165Z,11.87
2018-12-22T06:07:17.313Z,11.82
2018-12-22T06:08:21.490Z,11.81
2018-12-22T06:09:25.565Z,11.77
2018-12-22T06:10:29.708Z,11.72
2018-12-22T06:11:33.806Z,11.69
2018-12-22T06:12:38.100Z,11.67
2018-12-22T06:13:42.177Z,11.66
2018-12-22T06:14:46.243Z,11.64
2018-12-22T06:15:50.391Z,11.59
2018-12-22T06:16:54.416Z,11.54
2018-12-22T06:17:58.441Z,11.48
2018-12-22T06:19:02.450Z,11.45
2018-12-22T06:20:08.731Z,11.43
2018-12-22T06:21:12.748Z,11.41
2018-12-22T06:22:16.747Z,11.36
2018-12-22T06:23:20.779Z,11.36
2018-12-22T06:24:24.812Z,11.34
2018-12-22T06:25:28.883Z,11.33
2018-12-22T06:26:32.907Z,11.31
2018-12-22T06:27:36.957Z,11.29
2018-12-22T06:28:40.978Z,11.27
2018-12-22T06:29:45.002Z,11.25
2018-12-22T06:30:49.071Z,11.25
2018-12-22T06:31:53.406Z,11.25
2018-12-22T06:32:57.490Z,11.25
2018-12-22T06:34:01.507Z,11.24
2018-12-22T06:35:05.818Z,11.24
2018-12-22T06:36:09.803Z,11.25
2018-12-22T06:37:13.830Z,11.26
2018-12-22T06:38:17.941Z,11.22
2018-12-22T06:39:22.097Z,11.27
2018-12-22T06:40:26.153Z,11.28
2018-12-22T06:41:30.334Z,11.26
2018-12-22T06:42:34.533Z,11.31
2018-12-22T06:43:38.573Z,11.34
2018-12-22T06:44:42.666Z,11.36
2018-12-22T06:45:46.741Z,11.37
2018-12-22T06:46:50.833Z,11.39
2018-12-22T06:47:54.850Z,11.42
2018-12-22T06:48:58.946Z,11.44
2018-12-22T06:50:03.192Z,11.41
2018-12-22T06:51:07.247Z,11.46
2018-12-22T06:52:11.363Z,11.49
2018-12-22T06:53:15.369Z,11.50
2018-12-22T06:54:19.385Z,11.53
2018-12-22T06:55:23.413Z,11.56
2018-12-22T06:56:27.562Z,11.57
2018-12-22T06:57:31.582Z,11.60
2018-12-22T06:58:35.679Z,11.61
2018-12-22T06:59:39.682Z,11.63
2018-12-22T07:00:43.899Z,11.66
2018-12-22T07:01:48.254Z,11.68
2018-12-22T07:02:52.306Z,11.71
2018-12-22T07:03:56.315Z,11.73
2018-12-22T07:05:02.114Z,11.72
2018-12-22T07:06:06.514Z,11.78
2018-12-22T07:07:10.618Z,11.78
2018-12-22T07:08:14.748Z,11.79
2018-12-22T07:09:18.749Z,11.82
2018-12-22T07:10:22.760Z,11.81
2018-12-22T07:11:26.842Z,11.81
2018-12-22T07:12:30.929Z,11.83
2018-12-22T07:13:35.322Z,11.85
2018-12-22T07:14:39.355Z,11.85
2018-12-22T07:15:43.413Z,11.84
2018-12-22T07:16:47.593Z,11.83
2018-12-22T07:17:51.688Z,11.82
2018-12-22T07:18:55.694Z,11.81
2018-12-22T07:19:59.889Z,11.78
2018-12-22T07:21:03.885Z,11.77
2018-12-22T07:22:07.987Z,11.76
2018-12-22T07:23:11.999Z,11.71
2018-12-22T07:24:16.063Z,11.75
2018-12-22T07:25:20.120Z,11.75
2018-12-22T07:26:24.137Z,11.67
2018-12-22T07:27:28.255Z,11.74
2018-12-22T07:28:32.333Z,11.72
2018-12-22T07:29:36.376Z,11.70
2018-12-22T07:30:40.469Z,11.69
2018-12-22T07:31:44.518Z,11.68
2018-12-22T07:32:56.697Z,11.66
2018-12-22T07:33:54.498Z,11.65
2018-12-22T07:34:58.580Z,11.60
2018-12-22T07:36:03.660Z,11.64
2018-12-22T07:37:07.668Z,11.57
2018-12-22T07:38:11.680Z,11.60
2018-12-22T07:39:16.171Z,11.60
2018-12-22T07:40:20.449Z,11.59
2018-12-22T07:41:24.502Z,11.59
2018-12-22T07:42:28.511Z,11.57
2018-12-22T07:43:32.547Z,11.54
2018-12-22T07:44:36.641Z,11.58
2018-12-22T07:45:40.701Z,11.57
2018-12-22T07:46:44.711Z,11.56
2018-12-22T07:47:48.777Z,11.55
2018-12-22T07:48:52.884Z,11.53
2018-12-22T07:49:56.917Z,11.55
2018-12-22T07:51:01.190Z,11.52
2018-12-22T07:52:05.217Z,11.52
2018-12-22T07:53:09.371Z,11.52
2018-12-22T07:54:13.462Z,11.48
2018-12-22T07:55:17.480Z,11.50
2018-12-22T07:56:21.797Z,11.45
2018-12-22T07:57:25.998Z,11.51
2018-12-22T07:58:30.059Z,11.50
2018-12-22T07:59:34.214Z,11.44
2018-12-22T08:00:38.318Z,11.54
2018-12-22T08:01:42.526Z,11.55
2018-12-22T08:02:46.603Z,11.58
2018-12-22T08:03:50.628Z,11.60
2018-12-22T08:04:54.706Z,11.63
2018-12-22T08:05:58.720Z,11.65
2018-12-22T08:07:02.817Z,11.67
2018-12-22T08:08:06.889Z,11.71
2018-12-22T08:09:11.199Z,11.71
2018-12-22T08:10:15.355Z,11.75
2018-12-22T08:11:19.510Z,11.78
2018-12-22T08:12:23.506Z,11.81
2018-12-22T08:13:27.628Z,11.83
2018-12-22T08:14:32.124Z,11.84
2018-12-22T08:15:36.226Z,11.86
2018-12-22T08:16:40.322Z,11.90
2018-12-22T08:17:44.324Z,11.88
2018-12-22T08:18:48.427Z,11.93
2018-12-22T08:19:52.734Z,11.93
2018-12-22T08:20:56.802Z,11.96
2018-12-22T08:22:00.847Z,11.93
2018-12-22T08:23:04.981Z,11.98
2018-12-22T08:24:09.263Z,12.01
2018-12-22T08:25:13.329Z,11.99
2018-12-22T08:26:17.356Z,12.05
2018-12-22T08:27:21.453Z,12.04
2018-12-22T08:28:25.465Z,12.04
2018-12-22T08:29:29.647Z,12.04
2018-12-22T08:30:33.838Z,12.04
2018-12-22T08:31:37.882Z,11.98
2018-12-22T08:32:41.989Z,12.01
2018-12-22T08:33:46.068Z,11.99
2018-12-22T08:34:50.049Z,11.97
2018-12-22T08:35:54.139Z,11.98
2018-12-22T08:36:58.148Z,11.93
2018-12-22T08:38:02.186Z,11.95
2018-12-22T08:39:07.306Z,11.96
2018-12-22T08:40:12.531Z,11.91
2018-12-22T08:41:16.518Z,11.94
2018-12-22T08:42:20.662Z,11.93
2018-12-22T08:43:24.722Z,11.92
2018-12-22T08:44:28.934Z,11.92
2018-12-22T08:45:32.960Z,11.93
2018-12-22T08:46:37.074Z,11.92
2018-12-22T08:47:41.168Z,11.92
2018-12-22T08:48:45.175Z,11.90
2018-12-22T08:49:49.266Z,11.90
2018-12-22T08:50:53.225Z,11.91
2018-12-22T08:51:57.874Z,11.89
2018-12-22T08:53:01.907Z,11.89
2018-12-22T08:54:06.246Z,11.89
2018-12-22T08:55:10.375Z,11.85
2018-12-22T08:56:14.430Z,11.86
2018-12-22T08:57:18.470Z,11.87
2018-12-22T08:58:22.574Z,11.87
2018-12-22T08:59:26.644Z,11.88
2018-12-22T09:00:30.719Z,11.91
2018-12-22T09:01:34.734Z,11.88
2018-12-22T09:02:38.826Z,11.95
2018-12-22T09:03:43.054Z,11.93
2018-12-22T09:04:47.168Z,12.01
2018-12-22T09:05:51.326Z,12.06
2018-12-22T09:06:55.409Z,12.09
2018-12-22T09:07:59.449Z,12.10
2018-12-22T09:09:05.500Z,12.12
2018-12-22T09:10:10.118Z,12.15
2018-12-22T09:11:14.184Z,12.18
2018-12-22T09:12:18.198Z,12.20
2018-12-22T09:13:22.295Z,12.23
2018-12-22T09:14:26.364Z,12.26
2018-12-22T09:15:30.814Z,12.29
2018-12-22T09:16:34.975Z,12.32
2018-12-22T09:17:39.221Z,12.34
2018-12-22T09:18:43.239Z,12.34
2018-12-22T09:19:47.366Z,12.38
2018-12-22T09:20:51.370Z,12.40
2018-12-22T09:21:55.466Z,12.42
2018-12-22T09:22:59.455Z,12.45
2018-12-22T09:24:03.466Z,12.46
2018-12-22T09:25:08.618Z,12.50
2018-12-22T09:26:12.624Z,12.51
2018-12-22T09:27:16.716Z,12.54
2018-12-22T09:28:20.858Z,12.52
2018-12-22T09:29:24.892Z,12.59
2018-12-22T09:30:28.903Z,12.61
2018-12-22T09:31:33.196Z,12.62
2018-12-22T09:32:37.485Z,12.64
2018-12-22T09:33:41.485Z,12.61
2018-12-22T09:34:45.510Z,12.66
2018-12-22T09:35:49.608Z,12.69
2018-12-22T09:36:53.750Z,12.72
2018-12-22T09:37:58.099Z,12.73
2018-12-22T09:39:02.404Z,12.75
2018-12-22T09:40:11.647Z,12.75
2018-12-22T09:41:15.773Z,12.75
2018-12-22T09:42:19.795Z,12.74
2018-12-22T09:43:23.977Z,12.72
2018-12-22T09:44:28.014Z,12.73
2018-12-22T09:45:32.226Z,12.71
2018-12-22T09:46:36.407Z,12.72
2018-12-22T09:47:40.398Z,12.72
2018-12-22T09:48:44.455Z,12.74
2018-12-22T09:49:48.635Z,12.75
2018-12-22T09:50:52.919Z,12.77
2018-12-22T09:51:57.054Z,12.78
2018-12-22T09:53:01.112Z,12.81
2018-12-22T09:54:05.249Z,12.82
2018-12-22T09:55:09.402Z,12.84
2018-12-22T09:56:13.440Z,12.87
2018-12-22T09:57:17.463Z,12.89
2018-12-22T09:58:21.491Z,12.89
2018-12-22T09:59:25.503Z,12.89
2018-12-22T10:00:29.566Z,12.88
2018-12-22T10:01:33.661Z,12.88
2018-12-22T10:02:37.978Z,12.87
2018-12-22T10:03:42.218Z,12.89
2018-12-22T10:04:46.249Z,12.84
2018-12-22T10:05:50.309Z,12.88
2018-12-22T10:06:54.387Z,12.87
2018-12-22T10:07:58.419Z,12.86
2018-12-22T10:09:02.510Z,12.87
2018-12-22T10:10:11.159Z,12.88
2018-12-22T10:11:15.217Z,12.90
2018-12-22T10:12:19.326Z,12.92
2018-12-22T10:13:23.306Z,12.92
2018-12-22T10:14:27.337Z,12.92
2018-12-22T10:15:31.591Z,12.95
2018-12-22T10:16:35.626Z,12.96
2018-12-22T10:17:39.769Z,12.96
2018-12-22T10:18:43.893Z,12.98
2018-12-22T10:19:47.857Z,12.99
2018-12-22T10:20:52.024Z,13.00
2018-12-22T10:21:56.131Z,13.00
2018-12-22T10:23:00.273Z,13.01
2018-12-22T10:24:04.453Z,13.02
2018-12-22T10:25:11.147Z,13.03
2018-12-22T10:26:15.170Z,13.02
2018-12-22T10:27:19.249Z,13.03
2018-12-22T10:28:23.263Z,13.02
2018-12-22T10:29:27.320Z,13.01
2018-12-22T10:30:31.459Z,13.01
2018-12-22T10:31:35.538Z,13.02
2018-12-22T10:32:39.625Z,13.02
2018-12-22T10:33:43.767Z,13.04
2018-12-22T10:34:47.887Z,13.04
2018-12-22T10:35:51.959Z,13.05
2018-12-22T10:36:56.063Z,13.06
2018-12-22T10:38:00.136Z,13.05
2018-12-22T10:39:06.465Z,13.04
2018-12-22T10:40:10.533Z,13.02
2018-12-22T10:41:14.554Z,13.01
2018-12-22T10:42:18.730Z,13.01
2018-12-22T10:43:22.726Z,13.03
2018-12-22T10:44:26.842Z,13.03
2018-12-22T10:45:31.074Z,13.04
2018-12-22T10:46:35.106Z,13.04
2018-12-22T10:47:39.470Z,13.03
2018-12-22T10:48:43.875Z,13.03
2018-12-22T10:49:47.923Z,13.02
2018-12-22T10:50:52.020Z,13.03
2018-12-22T10:51:56.304Z,13.00
2018-12-22T10:53:00.314Z,12.98
2018-12-22T10:54:04.505Z,12.95
2018-12-22T10:55:09.663Z,12.90
2018-12-22T10:56:13.639Z,12.89
2018-12-22T10:57:17.727Z,12.86
2018-12-22T10:58:21.847Z,12.83
2018-12-22T10:59:26.023Z,12.81
2018-12-22T11:00:30.098Z,12.80
2018-12-22T11:01:34.252Z,12.79
2018-12-22T11:02:38.311Z,12.80
2018-12-22T11:03:42.415Z,12.82
2018-12-22T11:04:46.618Z,12.83
2018-12-22T11:05:50.619Z,12.82
2018-12-22T11:06:54.711Z,12.81
2018-12-22T11:07:58.735Z,12.81
2018-12-22T11:09:02.948Z,12.81
2018-12-22T11:10:10.089Z,12.80
2018-12-22T11:11:14.113Z,12.74
2018-12-22T11:12:18.130Z,12.79
2018-12-22T11:13:22.113Z,12.80
2018-12-22T11:14:26.140Z,12.80
2018-12-22T11:15:30.142Z,12.79
2018-12-22T11:16:34.422Z,12.75
2018-12-22T11:17:38.471Z,12.71
2018-12-22T11:18:42.618Z,12.68
2018-12-22T11:19:46.812Z,12.66
2018-12-22T11:20:50.836Z,12.66
2018-12-22T11:21:54.863Z,12.66
2018-12-22T11:22:58.857Z,12.65
2018-12-22T11:24:03.084Z,12.64
2018-12-22T11:25:12.855Z,12.64
2018-12-22T11:26:16.976Z,12.67
2018-12-22T11:27:21.160Z,12.68
2018-12-22T11:28:25.212Z,12.71
2018-12-22T11:29:29.266Z,12.76
2018-12-22T11:30:35.955Z,12.77
2018-12-22T11:31:40.070Z,12.81
2018-12-22T11:32:44.154Z,12.82
2018-12-22T11:33:48.275Z,12.82
2018-12-22T11:34:52.483Z,12.81
2018-12-22T11:35:56.516Z,12.80
2018-12-22T11:37:00.534Z,12.77
2018-12-22T11:38:04.576Z,12.71
2018-12-22T11:39:08.606Z,12.73
2018-12-22T11:40:12.789Z,12.71
2018-12-22T11:41:16.794Z,12.71
2018-12-22T11:42:20.835Z,12.69
2018-12-22T11:43:24.849Z,12.71
2018-12-22T11:44:28.846Z,12.71
2018-12-22T11:45:32.888Z,12.72
2018-12-22T11:46:38.413Z,12.74
2018-12-22T11:47:52.075Z,12.76
2018-12-22T11:50:01.843Z,12.77
2018-12-22T11:51:05.991Z,12.75
2018-12-22T11:52:10.118Z,12.73
2018-12-22T11:53:14.227Z,12.73
2018-12-22T11:54:18.241Z,12.74
2018-12-22T11:55:22.434Z,12.73
2018-12-22T11:56:26.594Z,12.75
2018-12-22T11:57:30.585Z,12.75
2018-12-22T11:58:34.797Z,12.75
2018-12-22T11:59:39.021Z,12.77
2018-12-22T12:00:43.247Z,12.72
2018-12-22T12:01:47.280Z,12.80
2018-12-22T12:02:51.306Z,12.82
2018-12-22T12:03:55.314Z,12.84
2018-12-22T12:04:59.450Z,12.87
2018-12-22T12:06:03.566Z,12.88
2018-12-22T12:07:07.595Z,12.91
2018-12-22T12:08:12.038Z,12.93
2018-12-22T12:09:16.144Z,12.94
2018-12-22T12:10:20.307Z,12.95
2018-12-22T12:11:24.372Z,12.95
2018-12-22T12:12:28.405Z,12.95
2018-12-22T12:13:32.446Z,12.95
2018-12-22T12:14:36.880Z,12.94
2018-12-22T12:15:53.627Z,12.95
2018-12-22T12:17:07.083Z,12.96
2018-12-22T12:18:21.938Z,12.96
2018-12-22T12:19:28.760Z,12.96
2018-12-22T12:20:32.841Z,12.97
2018-12-22T12:21:37.323Z,12.97
2018-12-22T12:22:41.940Z,12.97
2018-12-22T12:23:46.037Z,12.98
2018-12-22T12:24:50.041Z,13.01
2018-12-22T12:25:54.040Z,13.02
2018-12-22T12:26:58.063Z,13.06
2018-12-22T12:28:02.072Z,13.08
2018-12-22T12:29:06.138Z,13.12
2018-12-22T12:30:10.810Z,13.14
2018-12-22T12:31:14.866Z,13.19
2018-12-22T12:32:18.917Z,13.19
2018-12-22T12:33:23.044Z,13.20
2018-12-22T12:34:27.049Z,13.22
2018-12-22T12:35:31.123Z,13.24
2018-12-22T12:36:35.225Z,13.25
2018-12-22T12:37:39.217Z,13.25
2018-12-22T12:38:43.299Z,13.24
2018-12-22T12:39:47.274Z,13.24
2018-12-22T12:40:51.367Z,13.23
2018-12-22T12:41:55.366Z,13.24
2018-12-22T12:42:59.435Z,13.24
2018-12-22T12:44:03.709Z,13.25
2018-12-22T12:45:10.881Z,13.25
2018-12-22T12:46:15.208Z,13.26
2018-12-22T12:47:19.246Z,13.27
2018-12-22T12:48:24.781Z,13.28
2018-12-22T12:49:28.901Z,13.29
2018-12-22T12:50:33.516Z,13.31
2018-12-22T12:51:37.615Z,13.33
2018-12-22T12:52:41.877Z,13.34
2018-12-22T12:53:46.052Z,13.36
2018-12-22T12:54:50.157Z,13.36
2018-12-22T12:55:54.416Z,13.37
2018-12-22T12:56:59.498Z,13.39
2018-12-22T12:58:03.607Z,13.37
2018-12-22T12:59:07.613Z,13.38
2018-12-22T13:00:13.598Z,13.38
2018-12-22T13:01:17.646Z,13.37
2018-12-22T13:02:21.770Z,13.38
2018-12-22T13:03:25.942Z,13.37
2018-12-22T13:04:30.199Z,13.37
2018-12-22T13:05:34.189Z,13.36
2018-12-22T13:06:38.496Z,13.35
2018-12-22T13:07:42.866Z,13.35
2018-12-22T13:08:46.918Z,13.33
2018-12-22T13:09:50.910Z,13.33
2018-12-22T13:10:55.016Z,13.32
2018-12-22T13:12:05.035Z,13.33
2018-12-22T13:13:50.929Z,13.31
2018-12-22T13:14:54.959Z,13.40
2018-12-22T13:15:59.007Z,13.42
2018-12-22T13:17:03.171Z,13.44
2018-12-22T13:18:07.242Z,13.45
2018-12-22T13:19:11.345Z,13.48
2018-12-22T13:20:15.518Z,13.48
2018-12-22T13:21:19.730Z,13.49
2018-12-22T13:22:23.886Z,13.51
2018-12-22T13:23:27.856Z,13.51
2018-12-22T13:24:32.035Z,13.53
2018-12-22T13:25:36.138Z,13.52
2018-12-22T13:26:40.270Z,13.53
2018-12-22T13:27:44.393Z,13.54
2018-12-22T13:28:48.562Z,13.55
2018-12-22T13:29:52.586Z,13.55
2018-12-22T13:30:56.580Z,13.54
2018-12-22T13:32:09.203Z,13.53
2018-12-22T13:33:07.045Z,13.53
2018-12-22T13:34:11.122Z,13.53
2018-12-22T13:35:15.274Z,13.51
2018-12-22T13:36:20.337Z,13.49
2018-12-22T13:37:24.539Z,13.48
2018-12-22T13:38:29.136Z,13.45
2018-12-22T13:39:33.156Z,13.42
2018-12-22T13:40:37.195Z,13.36
2018-12-22T13:41:41.206Z,13.30
2018-12-22T13:42:45.264Z,13.23
2018-12-22T13:43:49.327Z,13.17
2018-12-22T13:44:53.493Z,13.10
2018-12-22T13:45:57.605Z,13.02
2018-12-22T13:47:01.634Z,12.94
2018-12-22T13:48:05.921Z,12.85
2018-12-22T13:49:10.487Z,12.77